Time;durP1;ratioP1;P1;durP2;ratioP2;P2;SDS_P1;SDS_P2;PMS_P1;PMS_P2;Temp;Humidity;BMP_temperature;BMP_pressure;BME280_temperature;BME280_humidity;BME280_pressure;Samples;Min_cycle;Max_cycle;Signal;HPM_P1;HPM_P2
2021/03/10 00:02:27;;;;;;;76.47;34.07;;;;;;;1.05;51.70;99371.60;252252;1146;114365;-71
2021/03/10 00:07:39;;;;;;;71.70;34.35;;;;;;;1.02;52.32;99384.76;252279;1153;114778;-70
2021/03/10 00:12:42;;;;;;;72.35;35.25;;;;;;;0.98;52.41;99370.84;252236;1147;114669;-71
2021/03/10 00:17:44;;;;;;;81.55;33.70;;;;;;;0.94;52.68;99377.05;252160;1153;115042;-74
2021/03/10 00:22:47;;;;;;;76.60;33.83;;;;;;;0.89;52.50;99378.89;252156;1147;114713;-74
2021/03/10 00:27:49;;;;;;;75.90;34.68;;;;;;;0.84;52.50;99373.71;250735;1154;114860;-75
2021/03/10 00:32:51;;;;;;;72.50;34.80;;;;;;;0.79;52.66;99369.47;252240;1146;115078;-75
2021/03/10 00:38:04;;;;;;;78.75;35.88;;;;;;;0.76;52.96;99375.61;252287;1153;114695;-75
2021/03/10 00:43:06;;;;;;;79.25;34.68;;;;;;;0.69;52.89;99366.13;252226;1146;115088;-71
2021/03/10 00:48:09;;;;;;;76.93;34.67;;;;;;;0.63;52.70;99364.47;252167;1153;114696;-71
2021/03/10 00:53:11;;;;;;;81.70;35.90;;;;;;;0.59;53.10;99361.94;252213;1146;114708;-75
2021/03/10 00:58:13;;;;;;;76.37;35.60;;;;;;;0.57;52.71;99346.23;252295;1153;114370;-76
2021/03/10 01:03:16;;;;;;;72.73;33.43;;;;;;;0.56;52.97;99347.14;252047;1146;114961;-75
2021/03/10 01:08:22;;;;;;;73.95;33.15;;;;;;;0.53;53.23;99341.95;252201;1153;114722;-76
2021/03/10 01:13:25;;;;;;;67.95;34.03;;;;;;;0.47;53.44;99342.04;252242;1146;114885;-71
2021/03/10 01:18:27;;;;;;;75.77;34.63;;;;;;;0.44;53.21;99344.70;252250;1153;114773;-71
2021/03/10 01:23:29;;;;;;;71.13;33.30;;;;;;;0.40;53.13;99343.89;249417;1146;114861;-74
2021/03/10 01:28:32;;;;;;;75.97;33.77;;;;;;;0.35;53.36;99337.02;247581;1153;114784;-70
2021/03/10 01:33:52;;;;;;;74.15;34.43;;;;;;;0.28;53.57;99343.25;252204;1146;115273;-75
2021/03/10 01:38:54;;;;;;;72.68;34.35;;;;;;;0.23;53.76;99345.91;252214;1153;114763;-75
2021/03/10 01:43:56;;;;;;;77.47;35.33;;;;;;;0.20;53.89;99349.47;252185;1146;114326;-74
2021/03/10 01:49:00;;;;;;;77.23;35.97;;;;;;;0.19;54.15;99345.09;251294;1154;114283;-75
2021/03/10 01:54:02;;;;;;;76.63;34.70;;;;;;;0.15;53.70;99343.42;252198;1146;114677;-69
2021/03/10 01:59:04;;;;;;;79.33;34.07;;;;;;;0.11;54.43;99327.80;252243;1153;114634;-68
2021/03/10 02:04:08;;;;;;;78.57;35.00;;;;;;;0.07;54.11;99340.07;252403;1146;114923;-69
2021/03/10 02:09:33;;;;;;;79.30;34.30;;;;;;;0.02;54.25;99330.55;252560;1154;101033;-69
2021/03/10 02:14:54;;;;;;;71.13;34.27;;;;;;;-0.03;53.88;99334.10;252775;1146;100995;-69
2021/03/10 02:20:07;;;;;;;75.85;33.30;;;;;;;-0.04;54.13;99332.34;252825;1153;101277;-73
2021/03/10 02:25:14;;;;;;;78.63;33.33;;;;;;;-0.07;54.23;99335.03;249255;1152;103104;-74
2021/03/10 02:30:19;;;;;;;76.97;34.20;;;;;;;-0.08;54.41;99337.66;247722;1154;103177;-70
2021/03/10 02:35:23;;;;;;;78.70;35.35;;;;;;;-0.12;54.52;99330.75;251126;1148;103043;-69
2021/03/10 02:40:28;;;;;;;79.40;35.80;;;;;;;-0.18;54.33;99331.69;252674;1146;100816;-76
2021/03/10 02:45:31;;;;;;;73.93;33.67;;;;;;;-0.20;54.79;99345.66;248074;1154;103138;-70
2021/03/10 02:50:35;;;;;;;70.73;32.85;;;;;;;-0.26;54.98;99342.27;252067;1153;103106;-70
2021/03/10 02:55:39;;;;;;;68.67;32.87;;;;;;;-0.33;54.68;99344.98;252553;1146;101304;-69
2021/03/10 03:00:42;;;;;;;67.63;33.43;;;;;;;-0.33;55.13;99350.22;252577;1153;101646;-69
2021/03/10 03:05:44;;;;;;;73.13;34.73;;;;;;;-0.35;54.64;99342.38;252673;1146;101173;-76
2021/03/10 03:10:47;;;;;;;71.45;35.15;;;;;;;-0.33;55.02;99343.23;252565;1154;101545;-73
2021/03/10 03:15:54;;;;;;;78.38;36.08;;;;;;;-0.34;55.01;99346.74;252675;1147;101202;-70
2021/03/10 03:21:00;;;;;;;75.00;34.93;;;;;;;-0.33;55.40;99343.23;252619;1153;101263;-76
2021/03/10 03:26:02;;;;;;;76.90;34.80;;;;;;;-0.36;55.29;99348.50;252824;1146;101027;-74
2021/03/10 03:31:05;;;;;;;74.45;35.08;;;;;;;-0.42;54.75;99350.33;252887;1154;101161;-74
2021/03/10 03:36:09;;;;;;;79.55;36.00;;;;;;;-0.51;55.22;99346.06;252887;1146;101505;-69
2021/03/10 03:41:11;;;;;;;77.80;35.65;;;;;;;-0.59;55.31;99350.53;252827;1153;100912;-69
2021/03/10 03:46:14;;;;;;;78.48;37.18;;;;;;;-0.67;55.55;99355.86;252266;1146;103094;-69
2021/03/10 03:51:26;;;;;;;78.95;38.15;;;;;;;-0.66;55.59;99354.10;247138;1154;103171;-74
2021/03/10 03:56:29;;;;;;;78.33;37.05;;;;;;;-0.67;55.41;99352.38;252640;1146;101105;-73
2021/03/10 04:01:31;;;;;;;84.15;38.15;;;;;;;-0.70;55.79;99355.89;249688;1154;103151;-74
2021/03/10 04:06:34;;;;;;;82.15;38.90;;;;;;;-0.75;55.67;99355.06;248574;1146;104041;-73
2021/03/10 04:11:36;;;;;;;82.50;39.13;;;;;;;-0.80;55.97;99362.96;251109;1153;103008;-75
2021/03/10 04:16:38;;;;;;;81.50;38.10;;;;;;;-0.89;55.77;99362.19;246693;1147;103191;-74
2021/03/10 04:21:41;;;;;;;90.60;38.85;;;;;;;-0.92;55.81;99362.22;249452;1154;103308;-74
2021/03/10 04:26:43;;;;;;;82.35;37.93;;;;;;;-0.97;55.91;99363.14;252797;1146;101628;-74
2021/03/10 04:31:45;;;;;;;80.30;37.67;;;;;;;-0.97;56.45;99362.28;249985;1154;103538;-77
2021/03/10 04:36:48;;;;;;;81.70;36.67;;;;;;;-0.93;56.26;99368.33;251599;1146;103081;-70
2021/03/10 04:41:50;;;;;;;78.10;37.45;;;;;;;-0.92;56.35;99359.61;252635;1154;101020;-74
2021/03/10 04:46:52;;;;;;;82.30;37.83;;;;;;;-0.92;56.60;99364.83;249589;1147;103130;-69
2021/03/10 04:51:55;;;;;;;84.25;37.70;;;;;;;-0.96;56.61;99362.25;249648;1153;103275;-73
2021/03/10 04:56:57;;;;;;;85.60;38.40;;;;;;;-0.93;56.84;99363.97;247077;1153;103459;-69
2021/03/10 05:01:59;;;;;;;76.20;39.20;;;;;;;-0.94;56.87;99362.25;249685;1153;103119;-74
2021/03/10 05:07:03;;;;;;;82.80;38.10;;;;;;;-1.00;56.88;99370.14;248434;1153;103199;-74
2021/03/10 05:12:06;;;;;;;87.05;36.15;;;;;;;-1.03;56.66;99378.86;247334;1153;103560;-72
2021/03/10 05:17:08;;;;;;;83.70;38.70;;;;;;;-1.05;56.79;99374.56;248030;1146;103110;-76
2021/03/10 05:22:10;;;;;;;85.65;39.00;;;;;;;-1.06;56.61;99384.11;246877;1147;103187;-76
2021/03/10 05:27:13;;;;;;;87.43;37.40;;;;;;;-1.07;57.04;99382.39;248011;1153;103405;-68
2021/03/10 05:32:15;;;;;;;83.05;38.80;;;;;;;-1.10;57.08;99379.81;248683;1154;103183;-70
2021/03/10 05:37:18;;;;;;;99.45;40.75;;;;;;;-1.10;57.15;99373.72;247969;1147;103093;-74
2021/03/10 05:42:21;;;;;;;82.27;41.03;;;;;;;-1.06;56.99;99378.03;246203;1153;103103;-74
2021/03/10 05:47:23;;;;;;;95.43;40.37;;;;;;;-1.06;57.35;99381.50;247988;1147;103379;-72
2021/03/10 05:52:25;;;;;;;90.28;41.15;;;;;;;-1.04;57.51;99384.12;248457;1146;103557;-73
2021/03/10 05:57:28;;;;;;;79.80;39.50;;;;;;;-0.96;57.74;99392.73;248052;1154;103171;-69
2021/03/10 06:02:30;;;;;;;87.35;39.40;;;;;;;-0.90;57.86;99394.42;248281;1147;103104;-73
2021/03/10 06:07:36;;;;;;;83.93;39.13;;;;;;;-0.82;57.97;99395.20;247506;1153;103135;-73
2021/03/10 06:12:43;;;;;;;86.70;40.67;;;;;;;-0.74;57.96;99398.62;246578;1153;103153;-72
2021/03/10 06:17:48;;;;;;;78.90;40.00;;;;;;;-0.65;58.07;99393.27;247290;1153;103173;-74
2021/03/10 06:22:51;;;;;;;80.17;40.50;;;;;;;-0.50;58.21;99411.41;247372;1146;103184;-70
2021/03/10 06:27:57;;;;;;;91.67;43.33;;;;;;;-0.37;57.95;99413.89;247199;1154;103244;-70
2021/03/10 06:33:01;;;;;;;87.25;40.90;;;;;;;-0.25;57.57;99424.19;248036;1146;103210;-72
2021/03/10 06:38:10;;;;;;;92.47;41.40;;;;;;;-0.13;57.68;99424.05;248083;1153;103296;-68
2021/03/10 06:43:13;;;;;;;88.17;42.47;;;;;;;0.01;57.71;99425.63;247243;1146;103225;-75
2021/03/10 06:48:22;;;;;;;86.35;42.40;;;;;;;0.10;57.09;99435.94;247519;1154;103154;-74
2021/03/10 06:53:31;;;;;;;95.10;45.35;;;;;;;0.17;57.42;99434.97;248773;1147;103132;-69
2021/03/10 06:58:33;;;;;;;93.40;43.90;;;;;;;0.26;57.32;99437.47;248664;1154;103192;-72
2021/03/10 07:03:37;;;;;;;90.00;44.07;;;;;;;0.38;57.15;99442.55;246748;1147;103257;-71
2021/03/10 07:08:41;;;;;;;90.95;44.98;;;;;;;0.49;57.46;99450.23;247488;1154;103164;-75
2021/03/10 07:13:45;;;;;;;92.68;45.13;;;;;;;0.60;57.00;99439.60;246133;1153;103187;-67
2021/03/10 07:18:48;;;;;;;97.35;47.10;;;;;;;0.72;57.34;99446.42;247001;1154;103180;-72
2021/03/10 07:23:54;;;;;;;92.50;43.33;;;;;;;0.87;57.25;99451.40;246496;1154;103180;-73
2021/03/10 07:29:03;;;;;;;89.70;46.05;;;;;;;0.97;57.31;99450.36;247769;1154;103181;-68
2021/03/10 07:34:06;;;;;;;97.35;44.28;;;;;;;1.08;56.83;99458.89;247534;1154;103196;-72
2021/03/10 07:39:25;;;;;;;81.93;41.33;;;;;;;1.20;57.18;99463.08;247662;1154;103164;-66
2021/03/10 07:44:27;;;;;;;92.00;43.25;;;;;;;1.31;56.67;99468.98;247480;1147;103194;-72
2021/03/10 07:49:30;;;;;;;88.60;42.65;;;;;;;1.42;56.62;99468.80;246436;1147;103155;-72
2021/03/10 07:54:33;;;;;;;66.67;32.97;;;;;;;1.51;56.52;99455.52;246953;1146;103197;-74
2021/03/10 07:59:39;;;;;;;69.53;36.37;;;;;;;1.62;56.08;99461.42;247793;1153;103112;-73
2021/03/10 08:05:00;;;;;;;80.00;37.77;;;;;;;1.69;55.60;99454.30;246463;1147;103292;-72
2021/03/10 08:10:03;;;;;;;69.40;34.05;;;;;;;1.84;55.65;99451.39;249268;1146;103109;-74
2021/03/10 08:15:08;;;;;;;67.83;35.00;;;;;;;1.99;55.50;99457.22;247345;1147;103155;-68
2021/03/10 08:20:11;;;;;;;65.10;30.00;;;;;;;2.13;55.29;99457.78;247609;1153;103106;-73
2021/03/10 08:25:14;;;;;;;63.13;30.90;;;;;;;2.25;54.95;99456.67;248249;1153;103728;-74
2021/03/10 08:30:24;;;;;;;67.13;32.53;;;;;;;2.39;54.63;99453.75;246950;1154;103159;-66
2021/03/10 08:35:26;;;;;;;56.80;29.17;;;;;;;2.50;54.37;99456.99;247953;1148;103120;-71
2021/03/10 08:40:30;;;;;;;44.87;22.00;;;;;;;2.55;53.15;99470.91;247759;1147;103200;-68
2021/03/10 08:45:36;;;;;;;49.25;24.65;;;;;;;2.56;53.36;99473.48;246958;1153;103111;-70
2021/03/10 08:50:42;;;;;;;57.43;27.15;;;;;;;2.61;53.04;99465.48;248836;1147;103386;-68
2021/03/10 08:55:46;;;;;;;50.93;27.57;;;;;;;2.72;53.17;99467.89;249014;1154;103180;-73
2021/03/10 09:00:51;;;;;;;37.07;19.27;;;;;;;2.83;52.80;99474.61;248477;1154;103143;-73
2021/03/10 09:06:00;;;;;;;32.83;15.90;;;;;;;2.95;52.29;99464.69;247924;1146;104316;-69
2021/03/10 09:11:03;;;;;;;25.60;13.05;;;;;;;3.05;51.71;99458.30;248372;1146;103191;-68
2021/03/10 09:16:25;;;;;;;20.15;12.00;;;;;;;3.19;51.44;99455.33;248175;1147;103289;-72
2021/03/10 09:21:50;;;;;;;19.70;10.18;;;;;;;3.32;50.74;99449.71;247567;1146;103148;-73
2021/03/10 09:26:59;;;;;;;20.07;10.70;;;;;;;3.38;50.11;99451.33;250364;1148;103120;-70
2021/03/10 09:32:03;;;;;;;17.17;8.87;;;;;;;3.47;49.78;99452.88;249017;1147;103117;-69
2021/03/10 09:37:13;;;;;;;16.90;8.60;;;;;;;3.59;49.08;99454.30;249709;1154;103507;-74
2021/03/10 09:42:20;;;;;;;14.50;7.23;;;;;;;3.67;49.06;99447.94;248945;1154;103376;-68
2021/03/10 09:47:29;;;;;;;15.30;8.80;;;;;;;3.77;48.49;99459.05;247932;1147;113318;-67
2021/03/10 09:52:37;;;;;;;14.28;6.78;;;;;;;3.89;48.02;99453.45;250573;1153;103097;-67
2021/03/10 09:57:43;;;;;;;9.00;5.20;;;;;;;3.96;47.37;99460.27;248282;1153;117413;-74
2021/03/10 10:02:48;;;;;;;8.57;5.50;;;;;;;4.07;47.33;99464.36;249686;1153;103193;-68
2021/03/10 10:07:57;;;;;;;10.23;5.18;;;;;;;4.19;46.93;99466.66;248428;1147;103165;-68
2021/03/10 10:13:01;;;;;;;11.40;6.35;;;;;;;4.33;46.32;99458.34;247536;1154;103190;-68
2021/03/10 10:18:09;;;;;;;10.97;6.20;;;;;;;4.44;46.77;99457.09;248034;1154;103686;-72
2021/03/10 10:23:18;;;;;;;9.65;6.05;;;;;;;4.58;46.51;99459.30;247676;1154;103111;-69
2021/03/10 10:28:29;;;;;;;8.10;5.70;;;;;;;4.76;46.79;99467.58;247385;1153;106945;-67
2021/03/10 10:33:32;;;;;;;13.60;6.20;;;;;;;4.90;45.55;99453.03;246938;1153;103161;-68
2021/03/10 10:38:35;;;;;;;10.85;5.65;;;;;;;5.13;45.61;99451.39;248456;1153;103124;-74
2021/03/10 10:43:40;;;;;;;;;;;;;;;5.38;45.33;99452.31;248256;1154;103164;-67
2021/03/10 10:48:47;;;;;;;10.05;6.70;;;;;;;5.58;45.14;99451.63;248516;1153;118096;-68
2021/03/10 10:53:54;;;;;;;11.60;6.67;;;;;;;5.80;44.85;99449.06;248699;1153;103112;-71
2021/03/10 10:58:57;;;;;;;11.17;6.43;;;;;;;6.01;44.94;99446.59;247640;1154;103257;-74
2021/03/10 11:04:02;;;;;;;11.70;6.70;;;;;;;6.19;44.07;99450.36;246748;1147;103158;-70
2021/03/10 11:09:05;;;;;;;14.47;6.87;;;;;;;6.39;44.21;99453.96;226351;1148;10002231;-72
2021/03/10 11:14:09;;;;;;;12.60;6.80;;;;;;;6.50;44.01;99452.69;249479;1146;103568;-77
2021/03/10 11:19:19;;;;;;;14.30;7.75;;;;;;;6.48;43.47;99459.80;252765;1148;101018;-73
2021/03/10 11:24:23;;;;;;;15.30;8.60;;;;;;;6.81;44.08;99439.97;252724;1154;101520;-70
2021/03/10 11:29:26;;;;;;;13.77;8.20;;;;;;;6.70;42.77;99454.56;252653;1147;101155;-69
2021/03/10 11:34:30;;;;;;;14.08;7.80;;;;;;;6.69;42.78;99456.34;252420;1153;101052;-69
2021/03/10 11:39:33;;;;;;;13.05;7.55;;;;;;;6.70;43.23;99443.98;252441;1149;101264;-68
2021/03/10 11:44:36;;;;;;;13.80;8.05;;;;;;;6.50;42.52;99444.76;252447;1154;100917;-69
2021/03/10 11:49:39;;;;;;;17.25;8.73;;;;;;;6.37;42.60;99450.50;252717;1147;101649;-74
2021/03/10 11:54:42;;;;;;;14.67;8.33;;;;;;;6.94;43.70;99437.69;252726;1153;100950;-74
2021/03/10 11:59:45;;;;;;;14.73;8.33;;;;;;;7.14;42.65;99436.88;252286;1147;114429;-73
2021/03/10 12:08:21;;;;;;;17.65;9.00;;;;;;;7.41;43.03;99434.86;250874;1144;103071;-70
2021/03/10 12:13:27;;;;;;;15.08;9.28;;;;;;;7.87;42.77;99432.83;252238;1152;113667;-70
2021/03/10 12:18:32;;;;;;;15.75;9.18;;;;;;;7.60;40.96;99437.55;252179;1146;115073;-71
2021/03/10 12:23:35;;;;;;;18.90;9.70;;;;;;;7.19;40.68;99426.09;252231;1153;114271;-71
2021/03/10 12:28:42;;;;;;;16.20;8.87;;;;;;;6.92;40.31;99433.38;249903;1145;114662;-73
2021/03/10 12:33:46;;;;;;;14.90;9.28;;;;;;;6.80;41.36;99442.69;252212;1152;115561;-72
2021/03/10 12:38:59;;;;;;;14.40;9.53;;;;;;;6.55;40.52;99442.78;251981;1147;114152;-71
2021/03/10 12:44:08;;;;;;;14.18;9.13;;;;;;;6.32;40.69;99449.83;252305;1153;114371;-71
2021/03/10 12:49:11;;;;;;;16.63;9.30;;;;;;;6.05;40.91;99450.88;251016;1152;117677;-71
2021/03/10 12:54:14;;;;;;;15.25;9.55;;;;;;;5.96;40.67;99445.92;252252;1152;114224;-71
2021/03/10 12:59:22;;;;;;;15.98;8.95;;;;;;;5.95;41.31;99437.14;251966;1148;114304;-77
2021/03/10 13:04:25;;;;;;;14.63;8.43;;;;;;;6.15;41.02;99444.33;252276;1153;114222;-72
2021/03/10 13:09:27;;;;;;;17.03;9.37;;;;;;;6.10;40.88;99444.48;251732;1146;114701;-71
2021/03/10 13:14:30;;;;;;;16.08;8.65;;;;;;;6.16;41.07;99446.90;252299;1152;114178;-71
2021/03/10 13:19:33;;;;;;;15.23;8.80;;;;;;;6.16;41.17;99456.61;252244;1145;114347;-71
2021/03/10 13:24:35;;;;;;;13.43;8.37;;;;;;;6.11;40.28;99459.44;252296;1153;114137;-70
2021/03/10 13:29:37;;;;;;;14.38;8.35;;;;;;;6.00;40.21;99453.66;250410;1146;114097;-72
2021/03/10 13:34:40;;;;;;;15.00;8.28;;;;;;;5.96;40.34;99453.84;252288;1153;114260;-70
2021/03/10 13:39:42;;;;;;;16.50;9.30;;;;;;;5.97;40.46;99461.70;252313;1146;114143;-72
2021/03/10 13:44:45;;;;;;;14.30;8.88;;;;;;;5.89;40.34;99458.45;249189;1153;114294;-71
2021/03/10 13:49:47;;;;;;;17.85;9.18;;;;;;;5.81;41.01;99461.38;252353;1144;114099;-71
2021/03/10 13:54:53;;;;;;;15.33;8.63;;;;;;;5.72;40.63;99463.48;249334;1152;114106;-72
2021/03/10 13:59:58;;;;;;;15.10;8.50;;;;;;;5.58;40.73;99459.55;252243;1147;114739;-72
2021/03/10 14:05:01;;;;;;;16.27;9.20;;;;;;;5.49;40.90;99457.22;252220;1151;114794;-71
2021/03/10 14:10:04;;;;;;;15.20;8.70;;;;;;;5.43;40.63;99470.61;252266;1146;114286;-72
2021/03/10 14:15:20;;;;;;;14.17;8.73;;;;;;;5.35;39.99;99468.25;252281;1152;114331;-72
2021/03/10 14:20:24;;;;;;;13.23;8.43;;;;;;;5.30;39.92;99466.66;252304;1146;114498;-71
2021/03/10 14:25:27;;;;;;;17.70;8.73;;;;;;;5.24;40.51;99466.89;250839;1152;114198;-72
2021/03/10 14:30:29;;;;;;;14.25;8.58;;;;;;;5.20;40.66;99463.50;252172;1144;114194;-71
2021/03/10 14:35:32;;;;;;;16.08;8.50;;;;;;;5.21;40.86;99438.83;252284;1152;114309;-70
2021/03/10 14:40:36;;;;;;;13.65;8.73;;;;;;;5.20;40.17;99445.89;251843;1146;114289;-72
2021/03/10 14:45:38;;;;;;;15.53;8.65;;;;;;;5.14;40.25;99447.87;252283;1152;114101;-72
2021/03/10 14:50:40;;;;;;;12.63;8.20;;;;;;;5.08;40.09;99437.52;252167;1146;114370;-74
2021/03/10 14:55:48;;;;;;;14.30;7.95;;;;;;;5.01;40.26;99433.36;252266;1153;113907;-73
2021/03/10 15:00:51;;;;;;;15.85;9.43;;;;;;;4.97;40.47;99433.45;252228;1145;114262;-72
2021/03/10 15:05:57;;;;;;;15.85;8.53;;;;;;;4.94;39.88;99438.83;252306;1152;114313;-72
2021/03/10 15:11:07;;;;;;;16.60;8.53;;;;;;;4.84;40.03;99433.91;252580;1144;114112;-73
2021/03/10 15:16:21;;;;;;;14.58;8.00;;;;;;;4.70;39.86;99445.75;252081;1153;114425;-73
2021/03/10 15:21:25;;;;;;;16.87;8.77;;;;;;;4.57;39.98;99443.55;252220;1146;115212;-73
2021/03/10 15:26:27;;;;;;;17.35;8.73;;;;;;;4.47;40.06;99438.55;252259;1153;114644;-71
2021/03/10 15:31:29;;;;;;;13.25;8.20;;;;;;;4.38;40.09;99451.14;251417;1146;114256;-70
2021/03/10 15:36:34;;;;;;;19.38;8.38;;;;;;;4.32;40.07;99452.21;252297;1152;114434;-71
2021/03/10 15:41:36;;;;;;;14.63;8.43;;;;;;;4.27;40.18;99436.52;251394;1144;114370;-67
2021/03/10 15:46:39;;;;;;;14.93;8.23;;;;;;;4.23;39.87;99441.94;251783;1151;114485;-69
2021/03/10 15:51:41;;;;;;;14.17;7.73;;;;;;;4.18;40.35;99443.87;252270;1146;115345;-69
2021/03/10 15:56:44;;;;;;;14.78;8.95;;;;;;;4.11;40.29;99437.02;250129;1152;114839;-70
2021/03/10 16:01:46;;;;;;;22.18;9.20;;;;;;;4.07;40.29;99443.30;252392;1144;114395;-68
2021/03/10 16:06:48;;;;;;;16.60;9.00;;;;;;;4.07;40.22;99457.32;252301;1152;114780;-68
2021/03/10 16:11:50;;;;;;;15.98;9.15;;;;;;;4.06;40.67;99460.02;252534;1144;102133;-70
2021/03/10 16:16:53;;;;;;;15.83;8.73;;;;;;;3.99;40.30;99457.55;251343;1152;103072;-69
2021/03/10 16:21:57;;;;;;;14.40;8.40;;;;;;;3.94;40.25;99463.84;252956;1144;101072;-69
2021/03/10 16:26:59;;;;;;;19.00;9.70;;;;;;;3.86;40.77;99463.20;252737;1151;114277;-69
2021/03/10 16:32:02;;;;;;;21.10;9.27;;;;;;;3.75;40.30;99463.51;252448;1144;114366;-70
2021/03/10 16:37:06;;;;;;;;;;;;;;;3.66;40.60;99466.38;252324;1152;113874;-72
2021/03/10 16:42:11;;;;;;;17.47;9.33;;;;;;;3.55;40.74;99462.27;248529;1151;103535;-69
2021/03/10 16:47:15;;;;;;;17.88;9.30;;;;;;;3.43;40.64;99465.25;252131;1150;114357;-70
2021/03/10 16:52:18;;;;;;;26.78;9.95;;;;;;;3.31;40.73;99479.56;249207;1152;114319;-70
2021/03/10 16:57:23;;;;;;;20.00;10.00;;;;;;;3.21;40.98;99490.35;251846;1144;114281;-72
2021/03/10 17:02:30;;;;;;;25.28;9.73;;;;;;;3.12;41.11;99477.42;252205;1144;114545;-71
2021/03/10 17:07:46;;;;;;;19.70;10.23;;;;;;;3.05;41.21;99484.59;252315;1152;114083;-71
2021/03/10 17:13:08;;;;;;;19.20;9.05;;;;;;;3.10;41.10;99489.77;251148;1146;103071;-72
2021/03/10 17:18:11;;;;;;;20.03;9.50;;;;;;;3.12;41.26;99491.43;251934;1152;114434;-73
2021/03/10 17:23:26;;;;;;;21.33;9.95;;;;;;;3.10;40.78;99495.88;250991;1147;114577;-74
2021/03/10 17:28:28;;;;;;;17.65;9.58;;;;;;;3.14;40.96;99496.67;249688;1153;115001;-72
2021/03/10 17:33:43;;;;;;;19.20;9.25;;;;;;;3.18;40.69;99501.80;249275;1152;114326;-73
2021/03/10 17:39:16;;;;;;;20.65;10.65;;;;;;;3.16;40.55;99502.73;252706;1151;114071;-73
2021/03/10 17:44:50;;;;;;;20.95;9.50;;;;;;;3.11;41.01;99507.26;252475;1147;115075;-71
2021/03/10 17:49:59;;;;;;;25.75;13.13;;;;;;;3.01;40.97;99515.36;249760;1152;114552;-71
2021/03/10 17:55:03;;;;;;;21.95;11.68;;;;;;;2.89;40.97;99509.52;252353;1148;114859;-69
2021/03/10 18:00:19;;;;;;;19.60;9.95;;;;;;;2.78;41.07;99512.39;250271;1152;114666;-69
2021/03/10 18:06:03;;;;;;;21.53;11.13;;;;;;;2.68;41.50;99503.85;247893;1146;103145;-68
2021/03/10 18:11:06;;;;;;;21.00;11.05;;;;;;;2.68;41.27;99511.73;252559;1152;114701;-69
2021/03/10 18:16:11;;;;;;;26.40;11.63;;;;;;;2.75;41.36;99520.34;251557;1146;114951;-70
2021/03/10 18:22:12;;;;;;;22.38;11.55;;;;;;;2.78;41.31;99523.77;251439;1144;114999;-71
2021/03/10 18:28:11;;;;;;;25.25;11.95;;;;;;;2.77;41.54;99529.08;250133;1152;114568;-68
2021/03/10 18:33:54;;;;;;;25.40;12.27;;;;;;;2.66;41.57;99523.20;247266;1145;114564;-72
2021/03/10 18:40:00;;;;;;;29.00;14.70;;;;;;;2.64;41.44;99524.98;251812;1152;115224;-69
2021/03/10 18:45:34;;;;;;;27.15;14.10;;;;;;;2.61;41.29;99528.53;251351;1144;114680;-71
2021/03/10 18:52:02;;;;;;;28.90;13.75;;;;;;;2.52;41.28;99521.73;251803;1152;114581;-70
2021/03/10 18:57:05;;;;;;;36.90;15.33;;;;;;;2.46;41.42;99537.63;252172;1153;115446;-71
2021/03/10 19:08:01;;;;;;;33.40;16.03;;;;;;;2.40;41.99;99529.87;252259;1152;114229;-70
2021/03/10 19:13:08;;;;;;;33.97;17.10;;;;;;;2.47;41.82;99543.73;250378;1152;114488;-69
2021/03/10 19:18:47;;;;;;;39.33;16.47;;;;;;;2.48;41.66;99551.61;252264;1152;117994;-69
2021/03/10 19:23:50;;;;;;;44.53;16.83;;;;;;;2.46;41.60;99558.64;252231;1152;114546;-69
2021/03/10 19:28:53;;;;;;;48.40;19.30;;;;;;;2.43;41.79;99556.07;252312;1152;114586;-70
2021/03/10 19:34:52;;;;;;;36.50;18.55;;;;;;;2.31;42.00;99556.31;247729;1152;114243;-69
2021/03/10 19:39:54;;;;;;;47.37;18.70;;;;;;;2.19;42.10;99556.57;251392;1152;103052;-69
2021/03/10 19:45:25;;;;;;;47.00;19.73;;;;;;;2.07;42.38;99560.28;252525;1144;114653;-69
2021/03/10 19:50:58;;;;;;;40.78;19.65;;;;;;;2.00;43.12;99566.55;252456;1151;115684;-70
2021/03/10 19:56:13;;;;;;;42.50;19.60;;;;;;;1.95;42.95;99569.27;251724;1145;114666;-74
2021/03/10 20:01:18;;;;;;;50.35;20.03;;;;;;;1.87;43.66;99574.67;250418;1152;114613;-71
2021/03/10 20:06:58;;;;;;;52.18;20.50;;;;;;;1.80;43.65;99575.67;252141;1146;114752;-71
2021/03/10 20:12:29;;;;;;;49.60;20.00;;;;;;;1.79;43.89;99586.18;252228;1152;114737;-73
2021/03/10 20:17:32;;;;;;;58.33;21.50;;;;;;;1.71;43.97;99575.83;252396;1144;114588;-72
2021/03/10 20:22:45;;;;;;;50.00;22.73;;;;;;;1.64;44.44;99572.45;248616;1145;114683;-74
2021/03/10 20:27:49;;;;;;;55.00;23.53;;;;;;;1.57;44.10;99573.45;251474;1146;114877;-75
2021/03/10 20:32:52;;;;;;;53.13;23.77;;;;;;;1.48;44.55;99576.21;250063;1152;115022;-73
2021/03/10 20:37:56;;;;;;;54.73;22.85;;;;;;;1.37;44.62;99571.15;251178;1146;114653;-77
2021/03/10 20:42:59;;;;;;;49.73;23.40;;;;;;;1.30;45.10;99572.14;249865;1152;114795;-75
2021/03/10 20:48:01;;;;;;;58.38;24.25;;;;;;;1.28;45.28;99567.80;252322;1144;114746;-76
2021/03/10 20:53:06;;;;;;;66.68;25.93;;;;;;;1.21;45.37;99560.93;252251;1152;114739;-76
2021/03/10 20:58:18;;;;;;;83.28;27.85;;;;;;;1.15;45.83;99548.77;248510;1144;115298;-78
2021/03/10 21:03:21;;;;;;;69.85;31.30;;;;;;;1.14;45.94;99560.16;248920;1147;115161;-76
2021/03/10 21:08:23;;;;;;;86.98;36.68;;;;;;;1.09;46.32;99556.76;250574;1144;115192;-74
2021/03/10 21:13:31;;;;;;;103.15;43.45;;;;;;;1.02;46.77;99561.22;252763;1152;101067;-74
2021/03/10 21:18:33;;;;;;;89.70;40.93;;;;;;;1.00;46.73;99546.41;252631;1146;114794;-73
2021/03/10 21:23:52;;;;;;;106.23;45.15;;;;;;;0.94;47.37;99531.63;252787;1152;101239;-71
2021/03/10 21:28:58;;;;;;;102.50;48.08;;;;;;;0.90;47.38;99524.71;249568;1144;115148;-77
2021/03/10 21:34:03;;;;;;;113.10;48.35;;;;;;;0.84;47.50;99517.80;248177;1144;115281;-76
2021/03/10 21:39:06;;;;;;;112.58;49.70;;;;;;;0.78;47.98;99506.55;249750;1144;115238;-75
2021/03/10 21:44:08;;;;;;;111.98;48.73;;;;;;;0.68;48.14;99493.61;252339;1152;114652;-72
2021/03/10 21:49:19;;;;;;;117.03;50.60;;;;;;;0.64;48.34;99484.04;252317;1144;114893;-71
2021/03/10 21:54:24;;;;;;;;;;;;;;;0.63;48.86;99473.59;252705;1152;115210;-68
2021/03/10 21:59:32;;;;;;;120.80;47.50;;;;;;;0.58;48.54;99464.93;252278;1144;101097;-74
2021/03/10 22:04:40;;;;;;;125.58;49.53;;;;;;;0.60;49.07;99463.17;252290;1152;114978;-74
2021/03/10 22:09:44;;;;;;;113.90;49.60;;;;;;;0.64;48.79;99465.70;252247;1144;114920;-76
2021/03/10 22:14:53;;;;;;;110.95;48.40;;;;;;;0.61;48.33;99471.02;241129;1152;5140439;-79
2021/03/10 22:19:56;;;;;;;96.85;44.63;;;;;;;0.58;48.45;99459.69;251224;1146;115196;-70
2021/03/10 22:24:59;;;;;;;106.37;45.53;;;;;;;0.54;49.02;99458.88;250908;1153;1619324;-70
2021/03/10 22:30:05;;;;;;;97.35;44.45;;;;;;;0.49;48.43;99455.48;252341;1146;114703;-70
2021/03/10 22:35:08;;;;;;;99.03;46.40;;;;;;;0.51;48.43;99453.72;252274;1153;115713;-70
2021/03/10 22:40:11;;;;;;;108.33;45.88;;;;;;;0.50;48.21;99457.20;252198;1145;114842;-70
2021/03/10 22:45:16;;;;;;;107.20;45.05;;;;;;;0.47;48.94;99463.33;252029;1153;115047;-72
2021/03/10 22:50:22;;;;;;;95.85;42.30;;;;;;;0.45;48.60;99464.27;249806;1146;114764;-73
2021/03/10 22:55:28;;;;;;;105.93;45.73;;;;;;;0.39;49.05;99464.34;251901;1153;114287;-72
2021/03/10 23:00:39;;;;;;;100.47;44.20;;;;;;;0.36;49.09;99459.16;252247;1146;115030;-73
2021/03/10 23:05:45;;;;;;;105.03;46.28;;;;;;;0.33;48.78;99454.81;252209;1152;115116;-73
2021/03/10 23:10:48;;;;;;;104.70;46.10;;;;;;;0.29;48.61;99462.75;251497;1146;114928;-73
2021/03/10 23:15:50;;;;;;;105.28;47.00;;;;;;;0.24;48.78;99454.97;252121;1153;114939;-73
2021/03/10 23:20:59;;;;;;;90.95;43.58;;;;;;;0.21;49.11;99462.86;252163;1145;114902;-75
2021/03/10 23:26:04;;;;;;;103.73;44.07;;;;;;;0.20;49.02;99461.10;252190;1153;115785;-70
2021/03/10 23:31:10;;;;;;;89.10;41.50;;;;;;;0.13;48.92;99464.69;252188;1146;115556;-71